| time (UTC) | temp C | wind direction | speed KPH | gust KPH | rain 1hr cm | rain 24hr cm | rain mn cm | humidity % | barometer mb |
| 20260505081003 | 15 | 0 | 0.0 | 0.0 | 0.00 | 0.00 | 0.00 | 91 | 1004.9 |
| 20260505080713 | 15 | 0 | 0.0 | 0.0 | 0.00 | 0.00 | 0.00 | 91 | 1004.8 |
| 20260505080216 | 15 | 44 | 0.0 | 8.0 | 0.00 | 0.00 | 0.00 | 91 | 1004.7 |
| 20260505075714 | 15 | 44 | 4.8 | 29.0 | 0.00 | 0.00 | 0.00 | 91 | 1004.6 |
| 20260505075217 | 15 | 44 | 4.8 | 29.0 | 0.00 | 0.00 | 0.00 | 90 | 1004.6 |
| 20260505074715 | 15 | 44 | 1.6 | 11.3 | 0.00 | 0.00 | 0.00 | 89 | 1004.5 |
| 20260505074212 | 15 | 44 | 1.6 | 14.5 | 0.00 | 0.00 | 0.00 | 89 | 1004.3 |
| 20260505073715 | 15 | 44 | 3.2 | 17.7 | 0.00 | 0.00 | 0.00 | 88 | 1004.3 |
| 20260505073003 | 15 | 44 | 8.0 | 24.1 | 0.00 | 0.00 | 0.00 | 88 | 1004.3 |
| 20260505072503 | 15 | 43 | 8.0 | 24.1 | 0.00 | 0.00 | 0.00 | 87 | 1004.6 |
| 20260505072214 | 15 | 42 | 6.4 | 24.1 | 0.00 | 0.00 | 0.00 | 87 | 1004.8 |
| 20260505071503 | 16 | 41 | 3.2 | 9.7 | 0.00 | 0.00 | 0.00 | 87 | 1005.0 |
| 20260505071215 | 16 | 40 | 1.6 | 9.7 | 0.00 | 0.00 | 0.00 | 87 | 1005.1 |
| 20260505070503 | 16 | 40 | 1.6 | 9.7 | 0.00 | 0.00 | 0.00 | 87 | 1005.4 |
| 20260505070003 | 16 | 40 | 1.6 | 9.7 | 0.00 | 0.00 | 0.00 | 86 | 1005.5 |
| 20260505065503 | 16 | 40 | 1.6 | 11.3 | 0.00 | 0.00 | 0.00 | 86 | 1005.5 |
| 20260505065217 | 16 | 36 | 4.8 | 16.1 | 0.00 | 0.00 | 0.00 | 85 | 1005.6 |
| 20260505064715 | 16 | 29 | 8.0 | 20.9 | 0.00 | 0.00 | 0.00 | 83 | 1005.5 |
| 20260505064003 | 17 | 339 | 14.5 | 74.0 | 0.00 | 0.00 | 0.00 | 80 | 1005.3 |
| 20260505063716 | 17 | 328 | 25.7 | 77.2 | 0.00 | 0.00 | 0.00 | 79 | 1005.6 |
| 20260505063214 | 17 | 330 | 45.1 | 83.7 | 0.00 | 0.00 | 0.00 | 77 | 1005.9 |
| 20260505062717 | 18 | 334 | 45.1 | 143.2 | 0.00 | 0.00 | 0.00 | 74 | 1005.9 |
| 20260505062215 | 18 | 338 | 37.0 | 143.2 | 0.00 | 0.00 | 0.00 | 72 | 1005.8 |
| 20260505061713 | 19 | 327 | 49.9 | 173.8 | 0.00 | 0.00 | 0.00 | 68 | 1005.8 |
| 20260505061216 | 21 | 295 | 66.0 | 173.8 | 0.00 | 0.00 | 0.00 | 63 | 1005.1 |
| 20260505060714 | 21 | 264 | 46.7 | 173.8 | 0.00 | 0.00 | 0.00 | 61 | 1004.5 |
| 20260505060217 | 22 | 224 | 20.9 | 70.8 | 0.00 | 0.00 | 0.00 | 61 | 1003.3 |
| 20260505055503 | 22 | 219 | 19.3 | 66.0 | 0.00 | 0.00 | 0.00 | 61 | 1002.9 |
| 20260505055003 | 22 | 221 | 19.3 | 66.0 | 0.00 | 0.00 | 0.00 | 60 | 1002.7 |
| 20260505054503 | 22 | 221 | 19.3 | 48.3 | 0.00 | 0.00 | 0.00 | 60 | 1002.7 |
| 20260505054003 | 22 | 215 | 17.7 | 43.5 | 0.00 | 0.00 | 0.00 | 60 | 1002.6 |
| 20260505053717 | 22 | 215 | 16.1 | 41.8 | 0.00 | 0.00 | 0.00 | 60 | 1002.6 |
| 20260505053215 | 22 | 221 | 14.5 | 56.3 | 0.00 | 0.00 | 0.00 | 60 | 1002.5 |
| 20260505052713 | 22 | 223 | 19.3 | 56.3 | 0.00 | 0.00 | 0.00 | 59 | 1002.4 |
| 20260505052003 | 22 | 219 | 24.1 | 56.3 | 0.00 | 0.00 | 0.00 | 59 | 1002.3 |
| 20260505051503 | 22 | 216 | 22.5 | 56.3 | 0.00 | 0.00 | 0.00 | 59 | 1002.2 |
| 20260505051217 | 22 | 214 | 22.5 | 64.4 | 0.00 | 0.00 | 0.00 | 58 | 1002.2 |
| 20260505050503 | 22 | 217 | 25.7 | 64.4 | 0.00 | 0.00 | 0.00 | 58 | 1002.2 |
| 20260505050223 | 22 | 222 | 24.1 | 59.5 | 0.00 | 0.00 | 0.00 | 58 | 1002.1 |
| 20260505041714 | 23 | 220 | 25.7 | 53.1 | 0.00 | 0.00 | 0.00 | 57 | 1001.7 |
| 20260505041217 | 23 | 220 | 24.1 | 77.2 | 0.00 | 0.00 | 0.00 | 57 | 1001.6 |
| 20260505040715 | 23 | 218 | 17.7 | 77.2 | 0.00 | 0.00 | 0.00 | 58 | 1001.6 |
| 20260505040213 | 23 | 211 | 11.3 | 59.5 | 0.00 | 0.00 | 0.00 | 57 | 1001.6 |
| 20260505035716 | 23 | 214 | 11.3 | 59.5 | 0.00 | 0.00 | 0.00 | 57 | 1001.9 |
| 20260505035214 | 23 | 213 | 12.9 | 40.2 | 0.00 | 0.00 | 0.00 | 56 | 1002.0 |
| 20260505034503 | 23 | 214 | 12.9 | 61.2 | 0.00 | 0.03 | 0.00 | 56 | 1002.0 |
| 20260505034215 | 23 | 219 | 11.3 | 61.2 | 0.00 | 0.08 | 0.00 | 56 | 1002.1 |
| 20260505033503 | 23 | 213 | 20.9 | 66.0 | 0.00 | 0.10 | 0.00 | 56 | 1002.2 |
| 20260505033005 | 23 | 210 | 22.5 | 66.0 | 0.00 | 0.10 | 0.00 | 56 | 1002.3 |
| 20260505032503 | 24 | 209 | 14.5 | 46.7 | 0.00 | 0.10 | 0.00 | 55 | 1002.3 |
| 20260505032003 | 24 | 210 | 9.7 | 41.8 | 0.00 | 0.10 | 0.00 | 55 | 1002.2 |
| 20260505031715 | 24 | 209 | 9.7 | 41.8 | 0.00 | 0.10 | 0.00 | 55 | 1002.2 |
| 20260505031003 | 24 | 212 | 9.7 | 51.5 | 0.00 | 0.10 | 0.00 | 56 | 1002.2 |
| 20260505030716 | 24 | 212 | 11.3 | 51.5 | 0.00 | 0.10 | 0.00 | 56 | 1002.2 |
| 20260505030214 | 24 | 210 | 11.3 | 33.8 | 0.00 | 0.10 | 0.00 | 55 | 1002.0 |
| 20260505025503 | 24 | 214 | 11.3 | 46.7 | 0.00 | 0.10 | 0.00 | 55 | 1002.0 |
| 20260505025215 | 24 | 214 | 11.3 | 46.7 | 0.00 | 0.10 | 0.00 | 56 | 1002.1 |
| 20260505024713 | 24 | 210 | 8.0 | 46.7 | 0.00 | 0.10 | 0.00 | 56 | 1002.0 |
| 20260505024216 | 24 | 216 | 8.0 | 22.5 | 0.00 | 0.10 | 0.00 | 56 | 1002.0 |
| 20260505023714 | 24 | 223 | 4.8 | 22.5 | 0.00 | 0.10 | 0.00 | 56 | 1002.0 |
| 20260505023217 | 24 | 224 | 1.6 | 11.3 | 0.00 | 0.10 | 0.00 | 56 | 1001.9 |
| 20260505022715 | 24 | 0 | 0.0 | 0.0 | 0.00 | 0.10 | 0.00 | 56 | 1001.9 |
| 20260505022212 | 24 | 0 | 0.0 | 0.0 | 0.00 | 0.10 | 0.00 | 55 | 1001.7 |
| 20260505021503 | 24 | 0 | 0.0 | 0.0 | 0.00 | 0.10 | 0.00 | 55 | 1001.5 |
| 20260505021003 | 24 | 0 | 0.0 | 0.0 | 0.00 | 0.10 | 0.00 | 55 | 1001.4 |
| 20260505020716 | 24 | 0 | 0.0 | 0.0 | 0.00 | 0.10 | 0.00 | 55 | 1001.3 |
| 20260505020214 | 24 | 0 | 0.0 | 0.0 | 0.00 | 0.10 | 0.00 | 55 | 1001.2 |
| 20260505015503 | 24 | 0 | 0.0 | 0.0 | 0.00 | 0.10 | 0.00 | 55 | 1001.0 |
| 20260505015215 | 24 | 0 | 0.0 | 0.0 | 0.00 | 0.10 | 0.00 | 55 | 1001.0 |
| 20260505014503 | 24 | 0 | 0.0 | 0.0 | 0.00 | 0.10 | 0.00 | 56 | 1000.9 |
| 20260505014216 | 25 | 0 | 0.0 | 0.0 | 0.00 | 0.10 | 0.00 | 56 | 1000.9 |
| 20260505013714 | 25 | 0 | 0.0 | 0.0 | 0.00 | 0.10 | 0.00 | 56 | 1000.9 |
| 20260505013003 | 25 | 0 | 0.0 | 0.0 | 0.00 | 0.10 | 0.00 | 55 | 1000.9 |
| 20260505012715 | 25 | 0 | 0.0 | 0.0 | 0.00 | 0.10 | 0.00 | 55 | 1000.8 |
| 20260505012003 | 25 | 0 | 0.0 | 0.0 | 0.00 | 0.10 | 0.00 | 55 | 1000.7 |
| 20260505011716 | 25 | 0 | 0.0 | 0.0 | 0.00 | 0.10 | 0.00 | 55 | 1000.7 |
| 20260505011003 | 25 | 0 | 0.0 | 0.0 | 0.00 | 0.10 | 0.00 | 54 | 1000.6 |
| 20260505010503 | 25 | 0 | 0.0 | 0.0 | 0.00 | 0.10 | 0.00 | 55 | 1000.5 |
| 20260505010215 | 25 | 0 | 0.0 | 0.0 | 0.00 | 0.10 | 0.00 | 54 | 1000.5 |
| 20260505005503 | 25 | 0 | 0.0 | 0.0 | 0.00 | 0.10 | 0.00 | 54 | 1000.5 |
| 20260505005004 | 25 | 0 | 0.0 | 0.0 | 0.00 | 0.10 | 0.00 | 54 | 1000.6 |
| 20260505004503 | 25 | 0 | 0.0 | 0.0 | 0.00 | 0.10 | 0.00 | 54 | 1000.5 |
| 20260505004003 | 25 | 0 | 0.0 | 0.0 | 0.00 | 0.10 | 0.00 | 53 | 1000.4 |
| 20260505003503 | 25 | 0 | 0.0 | 0.0 | 0.00 | 0.10 | 0.00 | 53 | 1000.3 |
| 20260505003003 | 25 | 0 | 0.0 | 0.0 | 0.00 | 0.10 | 0.00 | 53 | 1000.3 |
| 20260505002503 | 26 | 0 | 0.0 | 0.0 | 0.00 | 0.10 | 0.00 | 52 | 1000.3 |
| 20260505002003 | 26 | 0 | 0.0 | 0.0 | 0.00 | 0.10 | 0.00 | 52 | 1000.3 |
| 20260505001503 | 26 | 0 | 0.0 | 0.0 | 0.00 | 0.10 | 0.00 | 51 | 1000.3 |
| 20260505001215 | 26 | 0 | 0.0 | 0.0 | 0.00 | 0.10 | 0.00 | 51 | 1000.3 |
| 20260505000503 | 26 | 0 | 0.0 | 0.0 | 0.00 | 0.10 | 0.00 | 51 | 1000.3 |
| 20260505000216 | 26 | 0 | 0.0 | 0.0 | 0.00 | 0.10 | 0.00 | 50 | 1000.3 |
| 20260504235503 | 26 | 0 | 0.0 | 0.0 | 0.00 | 0.10 | 0.00 | 49 | 1000.3 |
| 20260504235003 | 27 | 0 | 0.0 | 0.0 | 0.00 | 0.10 | 0.00 | 49 | 1000.3 |
| 20260504234714 | 27 | 0 | 0.0 | 0.0 | 0.00 | 0.10 | 0.00 | 49 | 1000.4 |
| 20260504234003 | 27 | 0 | 0.0 | 0.0 | 0.00 | 0.10 | 0.00 | 49 | 1000.3 |
| 20260504233503 | 27 | 0 | 0.0 | 0.0 | 0.00 | 0.10 | 0.00 | 49 | 1000.4 |
| 20260504233003 | 27 | 0 | 0.0 | 0.0 | 0.00 | 0.10 | 0.00 | 48 | 1000.4 |
| 20260504232503 | 27 | 0 | 0.0 | 0.0 | 0.00 | 0.10 | 0.00 | 49 | 1000.5 |
| 20260504232003 | 26 | 0 | 0.0 | 0.0 | 0.00 | 0.10 | 0.00 | 50 | 1000.5 |
| 20260504231503 | 26 | 0 | 0.0 | 0.0 | 0.00 | 0.10 | 0.00 | 51 | 1000.6 |
| 20260504231215 | 26 | 0 | 0.0 | 0.0 | 0.00 | 0.10 | 0.00 | 52 | 1000.7 |
| 20260504230503 | 26 | 0 | 0.0 | 0.0 | 0.00 | 0.10 | 0.00 | 52 | 1000.7 |
| 20260504230216 | 26 | 0 | 0.0 | 0.0 | 0.00 | 0.10 | 0.00 | 53 | 1000.7 |
| 20260504225503 | 26 | 0 | 0.0 | 0.0 | 0.00 | 0.10 | 0.00 | 59 | 1000.8 |
| 20260504225003 | 26 | 0 | 0.0 | 0.0 | 0.00 | 0.10 | 0.00 | 56 | 1000.8 |
| 20260504224715 | 26 | 0 | 0.0 | 0.0 | 0.00 | 0.10 | 0.00 | 56 | 1001.0 |
| 20260504224003 | 26 | 0 | 0.0 | 0.0 | 0.00 | 0.10 | 0.00 | 52 | 1000.9 |
| 20260504223503 | 26 | 0 | 0.0 | 0.0 | 0.00 | 0.10 | 0.00 | 52 | 1000.8 |
| 20260504223214 | 26 | 0 | 0.0 | 0.0 | 0.00 | 0.10 | 0.00 | 51 | 1000.7 |
| 20260504222717 | 26 | 0 | 0.0 | 0.0 | 0.00 | 0.10 | 0.00 | 51 | 1000.9 |
| 20260504222215 | 26 | 0 | 0.0 | 0.0 | 0.00 | 0.10 | 0.00 | 51 | 1001.0 |
| 20260504221503 | 26 | 0 | 0.0 | 0.0 | 0.00 | 0.10 | 0.00 | 51 | 1001.0 |
| 20260504221216 | 26 | 0 | 0.0 | 0.0 | 0.00 | 0.10 | 0.00 | 51 | 1001.1 |
| 20260504220503 | 26 | 0 | 0.0 | 0.0 | 0.00 | 0.10 | 0.00 | 56 | 1001.2 |
| 20260504220217 | 26 | 0 | 0.0 | 0.0 | 0.00 | 0.10 | 0.00 | 55 | 1001.2 |
| 20260504215503 | 26 | 0 | 0.0 | 0.0 | 0.00 | 0.10 | 0.00 | 54 | 1001.2 |
| 20260504215003 | 26 | 0 | 0.0 | 0.0 | 0.00 | 0.10 | 0.00 | 55 | 1001.1 |
| 20260504214716 | 26 | 0 | 0.0 | 0.0 | 0.00 | 0.10 | 0.00 | 55 | 1001.2 |
| 20260504214214 | 26 | 0 | 0.0 | 0.0 | 0.00 | 0.10 | 0.00 | 54 | 1001.3 |
| 20260504213503 | 26 | 0 | 0.0 | 0.0 | 0.00 | 0.10 | 0.00 | 55 | 1001.3 |
| 20260504213003 | 27 | 0 | 0.0 | 0.0 | 0.00 | 0.10 | 0.00 | 55 | 1001.4 |
| 20260504212503 | 26 | 0 | 0.0 | 0.0 | 0.00 | 0.10 | 0.00 | 54 | 1001.4 |
| 20260504212003 | 26 | 0 | 0.0 | 0.0 | 0.00 | 0.10 | 0.00 | 54 | 1001.3 |
| 20260504211714 | 26 | 0 | 0.0 | 0.0 | 0.00 | 0.10 | 0.00 | 55 | 1001.3 |
| 20260504211217 | 26 | 0 | 0.0 | 0.0 | 0.00 | 0.10 | 0.00 | 53 | 1001.3 |
| 20260504210715 | 26 | 0 | 0.0 | 0.0 | 0.00 | 0.10 | 0.00 | 55 | 1001.4 |
| 20260504210003 | 26 | 0 | 0.0 | 0.0 | 0.00 | 0.10 | 0.00 | 54 | 1001.5 |
| 20260504205503 | 26 | 0 | 0.0 | 0.0 | 0.00 | 0.10 | 0.00 | 53 | 1001.6 |
| 20260504205213 | 26 | 0 | 0.0 | 0.0 | 0.00 | 0.10 | 0.00 | 53 | 1001.6 |
| 20260504204503 | 26 | 0 | 0.0 | 0.0 | 0.00 | 0.10 | 0.00 | 53 | 1001.7 |
| 20260504204003 | 26 | 0 | 0.0 | 0.0 | 0.00 | 0.10 | 0.00 | 53 | 1001.9 |
| 20260504203712 | 26 | 0 | 0.0 | 0.0 | 0.00 | 0.10 | 0.00 | 54 | 1001.6 |
| 20260504203003 | 25 | 0 | 0.0 | 0.0 | 0.00 | 0.10 | 0.00 | 55 | 1001.7 |
| 20260504202713 | 25 | 0 | 0.0 | 0.0 | 0.00 | 0.10 | 0.00 | 56 | 1001.9 |
| 20260504202216 | 25 | 0 | 0.0 | 0.0 | 0.00 | 0.10 | 0.00 | 55 | 1002.0 |
| 20260504201503 | 25 | 0 | 0.0 | 0.0 | 0.00 | 0.10 | 0.00 | 55 | 1002.2 |
| 20260504201003 | 25 | 0 | 0.0 | 0.0 | 0.00 | 0.10 | 0.00 | 58 | 1002.3 |
| 20260504200503 | 24 | 0 | 0.0 | 0.0 | 0.00 | 0.10 | 0.00 | 58 | 1002.5 |
| 20260504200213 | 24 | 0 | 0.0 | 0.0 | 0.00 | 0.10 | 0.00 | 61 | 1002.5 |
| 20260504195503 | 23 | 0 | 0.0 | 0.0 | 0.00 | 0.10 | 0.00 | 59 | 1002.6 |
| 20260504195214 | 23 | 0 | 0.0 | 0.0 | 0.00 | 0.10 | 0.00 | 60 | 1002.6 |
| 20260504194717 | 22 | 0 | 0.0 | 0.0 | 0.00 | 0.10 | 0.00 | 60 | 1002.8 |
| 20260504194003 | 22 | 0 | 0.0 | 0.0 | 0.00 | 0.10 | 0.00 | 60 | 1002.9 |
| 20260504193503 | 22 | 0 | 0.0 | 0.0 | 0.00 | 0.10 | 0.00 | 60 | 1002.9 |
| 20260504193003 | 23 | 0 | 0.0 | 0.0 | 0.00 | 0.10 | 0.00 | 61 | 1003.0 |
| 20260504192714 | 22 | 0 | 0.0 | 0.0 | 0.00 | 0.10 | 0.00 | 60 | 1003.0 |
| 20260504192217 | 22 | 0 | 0.0 | 0.0 | 0.00 | 0.10 | 0.00 | 62 | 1003.2 |
| 20260504191503 | 22 | 0 | 6.4 | 0.0 | 0.00 | 0.10 | 0.00 | 65 | 1003.1 |
| 20260504191003 | 17 | 215 | 6.4 | 30.6 | 0.00 | 0.10 | 0.00 | 66 | 1002.8 |
| 20260504190504 | 17 | 215 | 6.4 | 30.6 | 0.00 | 0.10 | 0.00 | 66 | 1002.5 |
| 20260504190003 | 17 | 215 | 6.4 | 30.6 | 0.00 | 0.10 | 0.00 | 66 | 1002.5 |
| 20260504185717 | 17 | 215 | 6.4 | 30.6 | 0.00 | 0.10 | 0.00 | 66 | 1002.2 |
| 20260504185215 | 17 | 215 | 6.4 | 30.6 | 0.00 | 0.10 | 0.00 | 66 | 1002.3 |
| 20260504184713 | 17 | 215 | 6.4 | 30.6 | 0.00 | 0.10 | 0.00 | 66 | 1002.7 |
| 20260504184216 | 17 | 215 | 6.4 | 30.6 | 0.00 | 0.10 | 0.00 | 66 | 1003.1 |
| 20260504183503 | 17 | 215 | 6.4 | 30.6 | 0.00 | 0.10 | 0.00 | 66 | 1003.5 |
| 20260504183003 | 17 | 215 | 6.4 | 30.6 | 0.00 | 0.10 | 0.00 | 66 | 1003.6 |
| 20260504182720 | 17 | 215 | 6.4 | 30.6 | 0.00 | 0.10 | 0.00 | 66 | 1003.4 |
| 20260504182212 | 17 | 215 | 6.4 | 30.6 | 0.00 | 0.10 | 0.00 | 66 | 1003.7 |
| 20260504181503 | 17 | 215 | 6.4 | 30.6 | 0.00 | 0.10 | 0.00 | 66 | 1003.9 |
| 20260504181213 | 17 | 215 | 6.4 | 30.6 | 0.00 | 0.10 | 0.00 | 66 | 1003.9 |
| 20260504180503 | 17 | 215 | 6.4 | 30.6 | 0.00 | 0.10 | 0.00 | 66 | 1003.7 |
| 20260504180003 | 17 | 215 | 6.4 | 30.6 | 0.00 | 0.10 | 0.00 | 66 | 1003.4 |
| 20260504175503 | 17 | 215 | 6.4 | 30.6 | 0.00 | 0.10 | 0.00 | 66 | 1003.7 |
| 20260504175003 | 17 | 215 | 6.4 | 30.6 | 0.00 | 0.10 | 0.00 | 66 | 1003.9 |
| 20260504174503 | 17 | 215 | 6.4 | 30.6 | 0.00 | 0.10 | 0.00 | 66 | 1004.1 |
| 20260504174216 | 17 | 215 | 6.4 | 30.6 | 0.00 | 0.10 | 0.00 | 66 | 1004.1 |
| 20260504173714 | 17 | 215 | 6.4 | 30.6 | 0.00 | 0.10 | 0.00 | 66 | 1004.0 |
| 20260504173003 | 17 | 215 | 6.4 | 30.6 | 0.00 | 0.10 | 0.00 | 66 | 1004.1 |
| 20260504172503 | 17 | 215 | 6.4 | 30.6 | 0.00 | 0.10 | 0.00 | 66 | 1004.3 |
| 20260504172003 | 17 | 215 | 6.4 | 30.6 | 0.00 | 0.10 | 0.00 | 66 | 1004.5 |
| 20260504171716 | 17 | 215 | 6.4 | 30.6 | 0.00 | 0.10 | 0.00 | 66 | 1004.5 |
| 20260504171214 | 17 | 215 | 6.4 | 30.6 | 0.00 | 0.10 | 0.00 | 66 | 1004.9 |
| 20260504170503 | 17 | 215 | 6.4 | 30.6 | 0.00 | 0.10 | 0.00 | 66 | 1005.0 |
| 20260504151003 | 17 | 215 | 6.4 | 30.6 | 0.00 | 0.10 | 0.00 | 66 | 1005.3 |
| 20260504150503 | 17 | 215 | 6.4 | 30.6 | 0.00 | 0.10 | 0.00 | 66 | 1005.4 |
| 20260504150216 | 17 | 215 | 6.4 | 30.6 | 0.00 | 0.10 | 0.00 | 66 | 1005.7 |
| 20260504141216 | 17 | 215 | 6.4 | 30.6 | 0.00 | 0.10 | 0.00 | 66 | 1005.8 |
| 20260504140503 | 17 | 215 | 6.4 | 30.6 | 0.00 | 0.10 | 0.00 | 66 | 1005.7 |
| 20260504130503 | 17 | 215 | 6.4 | 30.6 | 0.00 | 0.10 | 0.00 | 66 | 1006.5 |
| 20260504120213 | 17 | 215 | 6.4 | 30.6 | 0.00 | 0.10 | 0.00 | 66 | 1006.7 |
| 20260504110503 | 17 | 215 | 6.4 | 30.6 | 0.00 | 0.10 | 0.00 | 66 | 1006.6 |
| 20260504110214 | 17 | 215 | 6.4 | 30.6 | 0.00 | 0.10 | 0.00 | 66 | 1006.6 |